createdAt,value
2023-05-09T00:01:50.543Z,12.2
2023-05-09T00:04:33.960Z,12.2
2023-05-09T00:06:27.082Z,12.2
2023-05-09T00:08:43.462Z,12.1
2023-05-09T00:10:52.024Z,12.1
2023-05-09T00:13:01.433Z,12
2023-05-09T00:15:12.300Z,12
2023-05-09T00:17:23.318Z,12
2023-05-09T00:19:33.928Z,12
2023-05-09T00:21:41.738Z,12
2023-05-09T00:23:51.019Z,12
2023-05-09T00:25:59.189Z,11.9
2023-05-09T00:28:06.975Z,11.9
2023-05-09T00:30:16.276Z,11.9
2023-05-09T00:32:26.008Z,11.9
2023-05-09T00:34:34.026Z,11.9
2023-05-09T00:36:42.230Z,11.9
2023-05-09T00:38:50.045Z,11.9
2023-05-09T00:40:58.354Z,11.9
2023-05-09T00:43:06.729Z,11.8
2023-05-09T00:45:15.922Z,11.8
2023-05-09T00:47:24.907Z,11.8
2023-05-09T00:49:33.019Z,11.7
2023-05-09T00:51:41.898Z,11.7
2023-05-09T00:53:49.691Z,11.7
2023-05-09T00:55:58.245Z,11.7
2023-05-09T00:58:06.200Z,11.6
2023-05-09T01:00:16.934Z,11.6
2023-05-09T01:02:24.920Z,11.6
2023-05-09T01:04:33.376Z,11.6
2023-05-09T01:06:55.321Z,11.5
2023-05-09T01:09:08.860Z,11.5
2023-05-09T01:11:27.440Z,11.5
2023-05-09T01:13:42.357Z,11.5
2023-05-09T01:15:55.499Z,11.4
2023-05-09T01:18:10.739Z,11.4
2023-05-09T01:20:26.964Z,11.4
2023-05-09T01:22:36.661Z,11.4
2023-05-09T01:25:02.675Z,11.3
2023-05-09T01:27:29.749Z,11.3
2023-05-09T01:29:43.265Z,11.3
2023-05-09T01:31:53.244Z,11.2
2023-05-09T01:34:05.889Z,11.2
2023-05-09T01:36:18.168Z,11.2
2023-05-09T01:38:31.650Z,11.1
2023-05-09T01:40:42.899Z,11.1
2023-05-09T01:42:55.853Z,11.1
2023-05-09T01:45:06.816Z,11
2023-05-09T01:47:20.120Z,11
2023-05-09T01:49:31.864Z,11
2023-05-09T01:51:42.307Z,11
2023-05-09T01:53:55.000Z,11
2023-05-09T01:56:05.558Z,10.9
2023-05-09T01:58:14.509Z,10.9
2023-05-09T02:00:25.251Z,10.9
2023-05-09T02:02:34.270Z,10.9
2023-05-09T02:04:44.151Z,10.9
2023-05-09T02:06:52.788Z,10.8
2023-05-09T02:09:01.212Z,10.8
2023-05-09T02:11:09.009Z,10.7
2023-05-09T02:13:17.061Z,10.7
2023-05-09T02:15:26.892Z,10.7
2023-05-09T02:17:34.953Z,10.7
2023-05-09T02:19:42.712Z,10.6
2023-05-09T02:21:50.638Z,10.6
2023-05-09T02:23:58.446Z,10.6
2023-05-09T02:26:06.547Z,10.6
2023-05-09T02:28:15.506Z,10.5
2023-05-09T02:30:27.492Z,10.5
2023-05-09T02:32:36.608Z,10.5
2023-05-09T02:34:46.244Z,10.4
2023-05-09T02:36:54.148Z,10.4
2023-05-09T02:39:03.076Z,10.4
2023-05-09T02:47:35.749Z,10.3
2023-05-09T02:49:44.735Z,10.3
2023-05-09T02:51:52.617Z,10.2
2023-05-09T02:54:00.596Z,10.2
2023-05-09T02:56:08.831Z,10.2
2023-05-09T02:58:16.804Z,10.2
2023-05-09T03:00:26.066Z,10.3
2023-05-09T03:02:35.445Z,10.2
2023-05-09T03:04:43.659Z,10.1
2023-05-09T03:08:33.713Z,10.1
2023-05-09T03:09:19.284Z,10.1
2023-05-09T03:11:27.653Z,10.1
2023-05-09T03:13:36.307Z,10
2023-05-09T03:15:44.230Z,10
2023-05-09T03:17:53.542Z,10
2023-05-09T03:20:04.027Z,10
2023-05-09T03:22:12.966Z,9.9
2023-05-09T03:24:20.764Z,9.9
2023-05-09T03:26:28.821Z,9.9
2023-05-09T03:28:36.767Z,9.9
2023-05-09T03:30:46.106Z,9.9
2023-05-09T03:32:58.132Z,9.9
2023-05-09T03:35:06.456Z,9.8
2023-05-09T03:37:17.500Z,9.8
2023-05-09T03:39:25.681Z,9.8
2023-05-09T03:41:35.861Z,9.7
2023-05-09T03:43:43.702Z,9.7
2023-05-09T03:45:51.754Z,9.7
2023-05-09T03:48:01.080Z,9.7
2023-05-09T03:50:10.564Z,9.7
2023-05-09T03:52:18.591Z,9.7
2023-05-09T03:54:26.506Z,9.9
2023-05-09T03:56:34.263Z,9.7
2023-05-09T03:58:42.250Z,9.7
2023-05-09T04:00:50.557Z,9.7
2023-05-09T04:03:03.080Z,9.7
2023-05-09T04:05:11.292Z,9.7
2023-05-09T04:07:20.676Z,9.7
2023-05-09T04:09:28.816Z,9.7
2023-05-09T04:11:36.586Z,9.7
2023-05-09T04:13:44.373Z,9.7
2023-05-09T04:15:52.332Z,9.8
2023-05-09T04:18:00.453Z,9.8
2023-05-09T04:20:11.231Z,9.8
2023-05-09T04:22:19.013Z,9.8
2023-05-09T04:24:26.796Z,9.8
2023-05-09T04:26:38.145Z,9.8
2023-05-09T04:28:45.895Z,9.8
2023-05-09T04:30:56.108Z,9.9
2023-05-09T04:33:08.232Z,9.9
2023-05-09T04:35:19.735Z,9.9
2023-05-09T04:37:28.261Z,10.2
2023-05-09T04:39:36.006Z,10.5
2023-05-09T04:41:44.539Z,10.8
2023-05-09T04:43:52.801Z,11.2
2023-05-09T04:46:00.802Z,11.5
2023-05-09T04:48:08.742Z,11.8
2023-05-09T04:50:18.135Z,11.8
2023-05-09T04:52:26.093Z,11.8
2023-05-09T04:54:34.574Z,11.8
2023-05-09T04:56:43.137Z,11.8
2023-05-09T04:58:52.499Z,11.7
2023-05-09T05:01:00.298Z,11.6
2023-05-09T05:03:11.235Z,11.5
2023-05-09T05:05:24.312Z,11.4
2023-05-09T05:07:32.927Z,11.3
2023-05-09T05:09:40.930Z,11.3
2023-05-09T05:11:58.725Z,11.2
2023-05-09T05:14:08.477Z,11.2
2023-05-09T05:16:16.317Z,11.2
2023-05-09T05:18:24.673Z,11.2
2023-05-09T05:20:35.183Z,11.2
2023-05-09T05:22:43.140Z,11.2
2023-05-09T05:24:50.916Z,11.2
2023-05-09T05:26:58.712Z,11.2
2023-05-09T05:29:06.711Z,11.2
2023-05-09T05:31:14.576Z,11.2
2023-05-09T05:33:22.842Z,11.3
2023-05-09T05:35:30.582Z,11.4
2023-05-09T05:37:39.877Z,11.4
2023-05-09T05:39:47.710Z,11.5
2023-05-09T05:41:55.932Z,11.5
2023-05-09T05:44:05.051Z,11.6
2023-05-09T05:46:13.143Z,11.7
2023-05-09T05:48:21.288Z,11.9
2023-05-09T05:50:29.268Z,11.7
2023-05-09T05:52:37.193Z,11.7
2023-05-09T05:54:46.396Z,11.8
2023-05-09T05:56:54.169Z,11.8
2023-05-09T05:59:02.031Z,11.9
2023-05-09T06:01:10.622Z,11.9
2023-05-09T06:03:19.403Z,11.9
2023-05-09T06:05:27.325Z,12
2023-05-09T06:07:35.890Z,12
2023-05-09T06:09:46.529Z,12.1
2023-05-09T06:11:55.119Z,12.1
2023-05-09T06:14:03.242Z,12.2
2023-05-09T06:16:19.084Z,12.2
2023-05-09T06:18:28.847Z,12.3
2023-05-09T06:20:36.780Z,12.4
2023-05-09T06:22:44.686Z,12.5
2023-05-09T06:24:53.824Z,12.5
2023-05-09T06:27:01.553Z,12.7
2023-05-09T06:29:10.983Z,12.8
2023-05-09T06:31:19.085Z,12.9
2023-05-09T06:33:26.969Z,13
2023-05-09T06:35:34.707Z,13.1
2023-05-09T06:37:42.724Z,13.2
2023-05-09T06:39:50.900Z,13.3
2023-05-09T06:41:59.965Z,13.5
2023-05-09T06:44:07.936Z,13.6
2023-05-09T06:46:16.736Z,13.6
2023-05-09T06:48:25.082Z,13.7
2023-05-09T06:50:33.136Z,13.9
2023-05-09T06:52:40.947Z,14
2023-05-09T06:54:48.729Z,14
2023-05-09T06:56:56.696Z,14.1
2023-05-09T06:59:06.165Z,14.1
2023-05-09T07:01:14.176Z,14.3
2023-05-09T07:03:31.471Z,14.5
2023-05-09T07:05:48.227Z,14.7
2023-05-09T07:07:56.888Z,14.8
2023-05-09T07:10:11.047Z,14.9
2023-05-09T07:12:21.134Z,15
2023-05-09T07:14:30.964Z,15.1
2023-05-09T07:16:38.900Z,15.2
2023-05-09T07:18:46.697Z,15.3
2023-05-09T07:20:54.860Z,15.4
2023-05-09T07:23:04.198Z,15.4
2023-05-09T07:25:12.242Z,15.6
2023-05-09T07:27:20.129Z,15.7
2023-05-09T07:29:27.924Z,15.9
2023-05-09T07:31:37.589Z,16
2023-05-09T07:33:45.711Z,16.1
2023-05-09T07:35:53.933Z,16.2
2023-05-09T07:38:05.231Z,16.3
2023-05-09T07:40:15.559Z,16.3
2023-05-09T07:42:23.485Z,16.3
2023-05-09T07:44:31.287Z,16.4
2023-05-09T07:46:42.818Z,16.5
2023-05-09T07:48:50.853Z,16.6
2023-05-09T07:50:59.031Z,16.7
2023-05-09T07:53:06.974Z,17
2023-05-09T07:55:14.887Z,16.9
2023-05-09T07:57:23.257Z,17.1
2023-05-09T07:59:31.038Z,17.2
2023-05-09T08:01:41.568Z,17.3
2023-05-09T08:03:49.641Z,17.5
2023-05-09T08:05:57.872Z,17.5
2023-05-09T08:08:06.010Z,17.7
2023-05-09T08:10:14.354Z,17.7
2023-05-09T08:12:22.099Z,17.8
2023-05-09T08:14:30.648Z,17.9
2023-05-09T08:16:39.927Z,18
2023-05-09T08:18:48.038Z,18.1
2023-05-09T08:20:56.054Z,18.3
2023-05-09T08:23:03.786Z,18.4
2023-05-09T08:25:13.722Z,18.5
2023-05-09T08:27:21.725Z,18.6
2023-05-09T08:29:30.256Z,18.8
2023-05-09T08:31:38.051Z,18.8
2023-05-09T08:33:47.321Z,18.9
2023-05-09T08:35:56.239Z,19
2023-05-09T08:38:05.593Z,19.1
2023-05-09T08:40:13.820Z,19.2
2023-05-09T08:42:24.754Z,19.2
2023-05-09T08:44:36.195Z,19.2
2023-05-09T08:46:49.345Z,19.4
2023-05-09T08:48:59.639Z,19.5
2023-05-09T08:51:08.268Z,19.6
2023-05-09T08:53:16.176Z,19.7
2023-05-09T08:55:24.540Z,19.6
2023-05-09T08:57:34.713Z,19.7
2023-05-09T08:59:43.539Z,19.8
2023-05-09T09:01:51.767Z,19.9
2023-05-09T09:04:01.887Z,19.9
2023-05-09T09:06:11.005Z,20
2023-05-09T09:08:19.886Z,20.1
2023-05-09T09:10:32.780Z,20.1
2023-05-09T09:12:41.479Z,20.2
2023-05-09T09:14:53.654Z,20.2
2023-05-09T09:17:02.303Z,20.2
2023-05-09T09:19:14.017Z,20.3
2023-05-09T09:21:24.786Z,20.3
2023-05-09T09:23:33.668Z,20.4
2023-05-09T09:25:41.468Z,20.6
2023-05-09T09:27:49.404Z,20.7
2023-05-09T09:30:07.827Z,20.8
2023-05-09T09:32:15.625Z,20.8
2023-05-09T09:34:24.921Z,20.8
2023-05-09T09:36:33.141Z,20.9
2023-05-09T09:38:45.886Z,21.1
2023-05-09T09:40:56.034Z,21.2
2023-05-09T09:43:08.629Z,21.1
2023-05-09T09:45:20.821Z,21.2
2023-05-09T09:47:34.825Z,21.1
2023-05-09T09:49:47.654Z,21.4
2023-05-09T09:51:57.193Z,21.4
2023-05-09T09:54:07.612Z,21.3
2023-05-09T09:56:15.523Z,21.5
2023-05-09T09:58:25.049Z,21.5
2023-05-09T10:00:33.155Z,21.5
2023-05-09T10:02:54.825Z,21.6
2023-05-09T10:05:09.570Z,21.9
2023-05-09T10:07:21.200Z,22.1
2023-05-09T10:09:29.581Z,22.1
2023-05-09T10:11:37.610Z,22.1
2023-05-09T10:13:46.687Z,22
2023-05-09T10:15:56.256Z,21.9
2023-05-09T10:18:05.632Z,22
2023-05-09T10:20:15.627Z,22.1
2023-05-09T10:22:24.774Z,22
2023-05-09T10:24:36.738Z,22
2023-05-09T10:26:47.769Z,22.2
2023-05-09T10:28:59.782Z,22.3
2023-05-09T10:31:16.811Z,22.4
2023-05-09T10:33:33.556Z,22.4
2023-05-09T10:35:47.353Z,22.4
2023-05-09T10:37:57.804Z,22.4
2023-05-09T10:40:09.675Z,22.5
2023-05-09T10:42:17.475Z,22.6
2023-05-09T10:44:26.088Z,22.5
2023-05-09T10:46:34.440Z,22.6
2023-05-09T10:48:43.037Z,22.7
2023-05-09T10:50:52.808Z,22.8
2023-05-09T10:53:11.283Z,23.1
2023-05-09T10:55:18.960Z,23.1
2023-05-09T10:57:28.426Z,23
2023-05-09T10:59:38.233Z,22.9
2023-05-09T11:01:46.885Z,22.9
2023-05-09T11:03:55.721Z,22.9
2023-05-09T11:06:04.982Z,23
2023-05-09T11:08:25.018Z,22.8
2023-05-09T11:10:43.606Z,22.8
2023-05-09T11:12:57.681Z,23
2023-05-09T11:15:09.017Z,23.1
2023-05-09T11:17:29.531Z,23.2
2023-05-09T11:19:39.324Z,23.2
2023-05-09T11:22:05.784Z,23.3
2023-05-09T11:24:20.102Z,23.5
2023-05-09T11:26:30.834Z,23.8
2023-05-09T11:28:39.643Z,23.9
2023-05-09T11:30:47.453Z,24
2023-05-09T11:32:58.708Z,23.9
2023-05-09T11:35:07.504Z,23.8
2023-05-09T11:37:19.011Z,23.8
2023-05-09T11:39:26.789Z,23.8
2023-05-09T11:41:42.829Z,23.8
2023-05-09T11:43:51.625Z,23.8
2023-05-09T11:45:59.975Z,23.8
2023-05-09T11:48:10.080Z,23.8
2023-05-09T11:50:19.776Z,24
2023-05-09T11:52:32.774Z,24
2023-05-09T11:54:40.900Z,24
2023-05-09T11:56:48.666Z,23.8
2023-05-09T11:58:56.671Z,23.8
2023-05-09T12:01:04.551Z,23.7
2023-05-09T12:03:12.834Z,23.6
2023-05-09T12:05:22.665Z,23.7
2023-05-09T12:07:31.831Z,23.8
2023-05-09T12:09:39.605Z,23.9
2023-05-09T12:11:50.763Z,24
2023-05-09T12:13:58.729Z,24
2023-05-09T12:16:09.668Z,24
2023-05-09T12:18:18.274Z,23.9
2023-05-09T12:20:26.055Z,23.8
2023-05-09T12:22:37.307Z,23.8
2023-05-09T12:24:45.156Z,23.8
2023-05-09T12:26:53.089Z,23.7
2023-05-09T12:29:01.033Z,23.7
2023-05-09T12:31:09.050Z,23.8
2023-05-09T12:33:17.225Z,23.7
2023-05-09T12:35:25.486Z,23.6
2023-05-09T12:37:34.630Z,23.5
2023-05-09T12:39:42.359Z,23.5
2023-05-09T12:42:00.858Z,23.5
2023-05-09T12:44:10.991Z,23.5
2023-05-09T12:46:19.878Z,23.5
2023-05-09T12:48:27.880Z,23.7
2023-05-09T12:50:36.327Z,23.8
2023-05-09T12:53:01.782Z,23.7
2023-05-09T12:55:13.680Z,23.7
2023-05-09T12:57:23.388Z,23.8
2023-05-09T12:59:31.222Z,23.6
2023-05-09T13:01:39.005Z,23.5
2023-05-09T13:03:52.537Z,23.4
2023-05-09T13:06:01.755Z,23.5
2023-05-09T13:08:11.877Z,23.3
2023-05-09T13:10:22.179Z,23.3
2023-05-09T13:12:30.125Z,23.4
2023-05-09T13:14:37.846Z,23.5
2023-05-09T13:16:46.189Z,23.5
2023-05-09T13:18:54.009Z,23.4
2023-05-09T13:21:01.713Z,23.7
2023-05-09T13:23:10.807Z,23.8
2023-05-09T13:25:20.194Z,23.9
2023-05-09T13:27:28.613Z,23.7
2023-05-09T13:29:36.388Z,23.6
2023-05-09T13:31:44.129Z,23.5
2023-05-09T13:33:52.311Z,23.5
2023-05-09T13:36:00.043Z,23.5
2023-05-09T13:38:07.817Z,23.5
2023-05-09T13:40:17.262Z,23.4
2023-05-09T13:42:25.161Z,23.5
2023-05-09T13:44:32.916Z,23.4
2023-05-09T13:46:40.899Z,23.4
2023-05-09T13:48:48.831Z,23.3
2023-05-09T13:50:57.770Z,23.3
2023-05-09T13:53:05.485Z,23.2
2023-05-09T13:55:13.336Z,23.1
2023-05-09T13:57:22.533Z,23
2023-05-09T13:59:30.833Z,22.9
2023-05-09T14:01:38.692Z,22.9
2023-05-09T14:03:48.916Z,22.9
2023-05-09T14:05:57.463Z,23
2023-05-09T14:08:07.863Z,23.3
2023-05-09T14:10:15.763Z,23.3
2023-05-09T14:12:24.895Z,23.3
2023-05-09T14:14:33.080Z,23.4
2023-05-09T14:16:41.067Z,23.2
2023-05-09T14:18:49.312Z,23.1
2023-05-09T14:20:57.257Z,23.1
2023-05-09T14:23:05.647Z,23.1
2023-05-09T14:25:14.986Z,23
2023-05-09T14:27:26.798Z,22.9
2023-05-09T14:29:37.074Z,22.9
2023-05-09T14:31:45.367Z,23
2023-05-09T14:33:53.129Z,23.1
2023-05-09T14:36:02.613Z,23.1
2023-05-09T14:38:10.544Z,23.2
2023-05-09T14:40:19.644Z,23.3
2023-05-09T14:42:28.616Z,23.2
2023-05-09T14:44:36.471Z,23.2
2023-05-09T14:46:44.551Z,23.1
2023-05-09T14:48:52.653Z,23
2023-05-09T14:51:01.481Z,23
2023-05-09T14:53:09.208Z,22.9
2023-05-09T14:55:17.126Z,22.9
2023-05-09T14:57:25.272Z,23
2023-05-09T14:59:36.786Z,23
2023-05-09T15:01:46.457Z,22.9
2023-05-09T15:03:53.676Z,22.9
2023-05-09T15:06:02.029Z,22.8
2023-05-09T15:08:09.619Z,22.8
2023-05-09T15:10:17.230Z,22.7
2023-05-09T15:12:24.879Z,22.7
2023-05-09T15:14:33.706Z,22.6
2023-05-09T15:16:41.393Z,22.6
2023-05-09T15:18:48.918Z,22.5
2023-05-09T15:20:57.372Z,22.5
2023-05-09T15:23:06.362Z,22.4
2023-05-09T15:25:14.299Z,22.3
2023-05-09T15:27:22.286Z,22.2
2023-05-09T15:29:29.852Z,22.1
2023-05-09T15:31:38.814Z,22
2023-05-09T15:33:46.329Z,21.9
2023-05-09T15:35:58.082Z,21.9
2023-05-09T15:38:05.588Z,22
2023-05-09T15:40:13.645Z,21.9
2023-05-09T15:42:21.619Z,21.9
2023-05-09T15:44:29.695Z,22
2023-05-09T15:46:38.614Z,22.1
2023-05-09T15:48:46.148Z,22
2023-05-09T15:50:54.045Z,21.9
2023-05-09T15:53:01.659Z,21.9
2023-05-09T15:55:10.705Z,22
2023-05-09T15:57:18.346Z,22
2023-05-09T15:59:26.095Z,22
2023-05-09T16:01:35.293Z,22.1
2023-05-09T16:03:48.898Z,22.1
2023-05-09T16:05:56.686Z,22.1
2023-05-09T16:08:06.045Z,22.2
2023-05-09T16:10:14.201Z,22.1
2023-05-09T16:12:32.937Z,22
2023-05-09T16:14:40.582Z,22
2023-05-09T16:16:50.318Z,22.1
2023-05-09T16:18:59.214Z,22
2023-05-09T16:21:06.815Z,22
2023-05-09T16:23:14.759Z,22
2023-05-09T16:25:22.543Z,22
2023-05-09T16:27:30.116Z,21.9
2023-05-09T16:29:37.748Z,21.8
2023-05-09T16:31:45.789Z,21.8
2023-05-09T16:33:53.760Z,21.7
2023-05-09T16:36:02.748Z,21.7
2023-05-09T16:38:10.752Z,21.8
2023-05-09T16:40:20.244Z,21.8
2023-05-09T16:42:28.295Z,21.8
2023-05-09T16:44:35.804Z,21.7
2023-05-09T16:46:43.429Z,21.9
2023-05-09T16:48:54.171Z,22
2023-05-09T16:51:03.020Z,21.9
2023-05-09T16:53:10.685Z,21.9
2023-05-09T16:55:18.516Z,21.8
2023-05-09T16:57:26.400Z,21.8
2023-05-09T16:59:34.053Z,21.9
2023-05-09T17:01:43.435Z,21.7
2023-05-09T17:03:51.519Z,21.8
2023-05-09T17:05:59.064Z,21.8
2023-05-09T17:08:07.909Z,21.8
2023-05-09T17:10:15.780Z,21.7
2023-05-09T17:12:23.551Z,21.8
2023-05-09T17:14:31.060Z,21.8
2023-05-09T17:16:38.789Z,21.6
2023-05-09T17:18:47.282Z,21.6
2023-05-09T17:20:54.773Z,21.6
2023-05-09T17:23:02.315Z,21.5
2023-05-09T17:25:12.325Z,21.3
2023-05-09T17:27:20.324Z,21.3
2023-05-09T17:29:28.821Z,21.2
2023-05-09T17:31:36.359Z,21
2023-05-09T17:33:44.150Z,20.8
2023-05-09T17:35:52.021Z,20.7
2023-05-09T17:37:59.571Z,20.5
2023-05-09T17:40:08.232Z,20.3
2023-05-09T17:42:17.276Z,20.1
2023-05-09T17:44:25.060Z,20
2023-05-09T17:46:32.710Z,19.9
2023-05-09T17:48:40.280Z,19.7
2023-05-09T17:50:47.800Z,19.6
2023-05-09T17:52:57.001Z,19.5
2023-05-09T17:55:05.094Z,19.4
2023-05-09T17:57:12.646Z,19.3
2023-05-09T17:59:21.538Z,19.2
2023-05-09T18:01:29.725Z,19.2
2023-05-09T18:03:37.397Z,19.1
2023-05-09T18:05:45.034Z,19
2023-05-09T18:07:52.756Z,19
2023-05-09T18:10:04.019Z,18.9
2023-05-09T18:12:12.006Z,18.9
2023-05-09T18:14:20.909Z,18.9
2023-05-09T18:16:28.521Z,18.8
2023-05-09T18:18:36.195Z,18.7
2023-05-09T18:20:45.908Z,18.6
2023-05-09T18:22:55.352Z,18.5
2023-05-09T18:25:03.583Z,18.5
2023-05-09T18:27:11.613Z,18.4
2023-05-09T18:29:22.354Z,18.4
2023-05-09T18:31:31.077Z,18.3
2023-05-09T18:33:39.590Z,18.3
2023-05-09T18:35:47.650Z,18.2
2023-05-09T18:37:55.389Z,18.1
2023-05-09T18:40:04.912Z,18.1
2023-05-09T18:42:13.951Z,18.1
2023-05-09T18:44:25.183Z,18
2023-05-09T18:46:33.280Z,18
2023-05-09T18:48:41.417Z,17.9
2023-05-09T18:50:51.952Z,17.8
2023-05-09T18:52:59.605Z,17.8
2023-05-09T18:55:07.676Z,17.8
2023-05-09T18:57:15.285Z,17.7
2023-05-09T18:59:23.408Z,17.7
2023-05-09T19:01:32.443Z,17.7
2023-05-09T19:03:44.959Z,17.6
2023-05-09T19:05:52.518Z,17.6
2023-05-09T19:08:03.334Z,17.5
2023-05-09T19:10:12.076Z,17.4
2023-05-09T19:12:19.883Z,17.4
2023-05-09T19:14:27.932Z,17.4
2023-05-09T19:16:37.554Z,17.3
2023-05-09T19:18:45.126Z,17.3
2023-05-09T19:20:52.774Z,17.2
2023-05-09T19:23:01.354Z,17.3
2023-05-09T19:25:09.992Z,17.2
2023-05-09T19:27:17.584Z,17.2
2023-05-09T19:29:26.425Z,17.1
2023-05-09T19:31:34.327Z,17.1
2023-05-09T19:33:45.091Z,17.1
2023-05-09T19:35:52.797Z,17
2023-05-09T19:38:00.328Z,16.9
2023-05-09T19:40:10.166Z,16.9
2023-05-09T19:42:17.684Z,16.9
2023-05-09T19:44:25.712Z,16.8
2023-05-09T19:46:33.437Z,16.8
2023-05-09T19:48:40.933Z,16.8
2023-05-09T19:50:50.006Z,16.7
2023-05-09T19:52:57.829Z,16.7
2023-05-09T19:55:06.576Z,16.7
2023-05-09T19:57:14.099Z,16.6
2023-05-09T19:59:21.615Z,16.6
2023-05-09T20:01:29.491Z,16.5
2023-05-09T20:03:38.978Z,16.4
2023-05-09T20:05:46.633Z,16.3
2023-05-09T20:07:55.549Z,16.2
2023-05-09T20:10:03.150Z,16
2023-05-09T20:12:11.652Z,15.9
2023-05-09T20:14:19.250Z,15.8
2023-05-09T20:16:26.936Z,15.6
2023-05-09T20:18:34.468Z,15.5
2023-05-09T20:20:42.207Z,15.4
2023-05-09T20:22:50.589Z,15.3
2023-05-09T20:24:59.413Z,15.2
2023-05-09T20:27:07.794Z,15.1
2023-05-09T20:29:16.321Z,15
2023-05-09T20:31:24.752Z,15
2023-05-09T20:33:32.285Z,14.9
2023-05-09T20:35:43.021Z,14.8
2023-05-09T20:37:50.659Z,14.7
2023-05-09T20:39:59.474Z,14.7
2023-05-09T20:42:07.233Z,14.6
2023-05-09T20:44:17.450Z,14.6
2023-05-09T20:46:25.025Z,14.5
2023-05-09T20:48:32.947Z,14.4
2023-05-09T20:50:41.142Z,14.4
2023-05-09T20:52:49.348Z,14.4
2023-05-09T20:54:57.008Z,14.3
2023-05-09T20:57:05.967Z,14.2
2023-05-09T20:59:13.656Z,14.2
2023-05-09T21:01:21.516Z,14.2
2023-05-09T21:03:29.284Z,14.2
2023-05-09T21:05:39.580Z,14.1
2023-05-09T21:07:47.118Z,14.1
2023-05-09T21:09:56.889Z,14
2023-05-09T21:12:06.943Z,14
2023-05-09T21:14:14.958Z,13.9
2023-05-09T21:16:23.251Z,13.9
2023-05-09T21:18:30.961Z,13.9
2023-05-09T21:20:39.430Z,13.8
2023-05-09T21:22:46.989Z,13.8
2023-05-09T21:24:54.725Z,13.7
2023-05-09T21:27:02.501Z,13.7
2023-05-09T21:29:11.917Z,13.7
2023-05-09T21:31:19.490Z,13.6
2023-05-09T21:33:27.056Z,13.7
2023-05-09T21:35:34.551Z,13.7
2023-05-09T21:37:41.994Z,13.6
2023-05-09T21:39:49.492Z,13.6
2023-05-09T21:41:56.935Z,13.5
2023-05-09T21:44:05.768Z,13.5
2023-05-09T21:46:14.773Z,13.5
2023-05-09T21:48:22.356Z,13.4
2023-05-09T21:50:29.886Z,13.4
2023-05-09T21:52:37.509Z,13.4
2023-05-09T21:54:45.297Z,13.3
2023-05-09T21:56:53.870Z,13.3
2023-05-09T21:59:01.417Z,13.3
2023-05-09T22:01:09.056Z,13.3
2023-05-09T22:03:18.141Z,13.3
2023-05-09T22:05:25.919Z,13.2
2023-05-09T22:07:33.415Z,13.2
2023-05-09T22:10:30.953Z,13.2
2023-05-09T22:14:56.574Z,13.1
2023-05-09T22:16:16.001Z,13.1
2023-05-09T22:17:59.196Z,13
2023-05-09T22:19:29.958Z,13
2023-05-09T22:21:37.706Z,13
2023-05-09T22:24:44.677Z,12.9
2023-05-09T22:26:41.274Z,12.9
2023-05-09T22:29:07.892Z,12.9
2023-05-09T22:31:35.866Z,12.9
2023-05-09T22:33:32.511Z,12.8
2023-05-09T22:36:08.124Z,12.8
2023-05-09T22:38:25.090Z,12.8
2023-05-09T22:41:22.055Z,12.8
2023-05-09T22:43:58.978Z,12.8
2023-05-09T22:45:25.759Z,12.9
2023-05-09T22:47:32.599Z,12.9
2023-05-09T22:49:40.364Z,12.9
2023-05-09T22:51:49.726Z,12.9
2023-05-09T22:53:59.008Z,12.9
2023-05-09T22:56:07.250Z,12.9
2023-05-09T22:58:18.635Z,12.9
2023-05-09T23:00:32.893Z,12.9
2023-05-09T23:03:25.921Z,12.9
2023-05-09T23:05:12.346Z,12.9
2023-05-09T23:07:36.285Z,12.9
2023-05-09T23:09:43.918Z,12.9
2023-05-09T23:11:54.756Z,12.9
2023-05-09T23:14:02.413Z,12.9
2023-05-09T23:16:10.009Z,12.9
2023-05-09T23:18:21.236Z,12.8
2023-05-09T23:20:28.914Z,12.8
2023-05-09T23:22:44.504Z,12.8
2023-05-09T23:24:59.532Z,12.8
2023-05-09T23:27:10.046Z,12.7
2023-05-09T23:29:17.652Z,12.7
2023-05-09T23:31:25.498Z,12.7
2023-05-09T23:33:37.332Z,12.7
2023-05-09T23:35:44.965Z,12.6
2023-05-09T23:37:54.248Z,12.6
2023-05-09T23:40:04.236Z,12.5
2023-05-09T23:42:14.590Z,12.5
2023-05-09T23:44:22.872Z,12.5
2023-05-09T23:46:30.855Z,12.5
2023-05-09T23:48:39.207Z,12.4
2023-05-09T23:50:47.071Z,12.4
2023-05-09T23:52:56.993Z,12.4
2023-05-09T23:55:24.092Z,12.4
2023-05-09T23:57:38.562Z,12.4
2023-05-09T23:59:46.362Z,12.3
